Terminal Aerodrome Forecast
Issued by NWS

Home | Current Version | Previous Version | Text Only | Print | Product List | Glossary On
Versions: 1 2 3 4 5 6 7 8 9 10 11 12 13
000
FTUS46 KMTR 291736
TAFSTS
TAF
KSTS 291736Z 2918/3018 24005KT P6SM SCT015 BKN025
     FM291930 26010KT P6SM FEW020 SCT040
     FM292300 26012G20KT P6SM FEW250
     FM300300 26010KT P6SM SKC
     FM300600 26008KT P6SM BKN010
     FM300800 VRB03KT P6SM OVC006
     FM301700 VRB04KT P6SM FEW008=

USA.gov is the U.S. government's official web portal to all federal, state and local government web resources and services.